sensor_id;sensor_type;location;lat;lon;timestamp;P1;durP1;ratioP1;P2;durP2;ratioP2
45408;SDS011;31162;51.076;3.784;2022-11-20T00:00:24;92.63;;;40.97;;
45408;SDS011;31162;51.076;3.784;2022-11-20T00:02:50;101.60;;;41.95;;
45408;SDS011;31162;51.076;3.784;2022-11-20T00:05:15;99.07;;;40.70;;
45408;SDS011;31162;51.076;3.784;2022-11-20T00:07:41;100.43;;;42.17;;
45408;SDS011;31162;51.076;3.784;2022-11-20T00:10:07;99.80;;;41.80;;
45408;SDS011;31162;51.076;3.784;2022-11-20T00:12:33;101.45;;;42.45;;
45408;SDS011;31162;51.076;3.784;2022-11-20T00:14:59;99.65;;;43.13;;
45408;SDS011;31162;51.076;3.784;2022-11-20T00:17:24;96.93;;;40.83;;
45408;SDS011;31162;51.076;3.784;2022-11-20T00:19:50;96.53;;;40.25;;
45408;SDS011;31162;51.076;3.784;2022-11-20T00:22:16;98.38;;;42.03;;
45408;SDS011;31162;51.076;3.784;2022-11-20T00:24:41;106.10;;;42.00;;
45408;SDS011;31162;51.076;3.784;2022-11-20T00:27:07;88.72;;;40.13;;
45408;SDS011;31162;51.076;3.784;2022-11-20T00:29:32;102.40;;;41.28;;
45408;SDS011;31162;51.076;3.784;2022-11-20T00:31:58;90.68;;;43.00;;
45408;SDS011;31162;51.076;3.784;2022-11-20T00:34:24;97.38;;;40.70;;
45408;SDS011;31162;51.076;3.784;2022-11-20T00:36:49;95.72;;;42.15;;
45408;SDS011;31162;51.076;3.784;2022-11-20T00:39:15;94.20;;;39.63;;
45408;SDS011;31162;51.076;3.784;2022-11-20T00:41:40;93.25;;;39.45;;
45408;SDS011;31162;51.076;3.784;2022-11-20T00:44:06;83.68;;;39.70;;
45408;SDS011;31162;51.076;3.784;2022-11-20T00:46:32;99.65;;;42.53;;
45408;SDS011;31162;51.076;3.784;2022-11-20T00:48:57;87.22;;;39.97;;
45408;SDS011;31162;51.076;3.784;2022-11-20T00:51:24;91.50;;;40.65;;
45408;SDS011;31162;51.076;3.784;2022-11-20T00:53:51;97.82;;;41.40;;
45408;SDS011;31162;51.076;3.784;2022-11-20T00:56:19;86.35;;;39.67;;
45408;SDS011;31162;51.076;3.784;2022-11-20T00:58:46;97.18;;;41.90;;
45408;SDS011;31162;51.076;3.784;2022-11-20T01:01:17;85.38;;;39.50;;
45408;SDS011;31162;51.076;3.784;2022-11-20T01:03:45;85.60;;;40.92;;
45408;SDS011;31162;51.076;3.784;2022-11-20T01:06:15;95.57;;;42.25;;
45408;SDS011;31162;51.076;3.784;2022-11-20T01:08:43;93.03;;;38.45;;
45408;SDS011;31162;51.076;3.784;2022-11-20T01:11:14;85.18;;;39.03;;
45408;SDS011;31162;51.076;3.784;2022-11-20T01:13:41;94.13;;;41.60;;
45408;SDS011;31162;51.076;3.784;2022-11-20T01:16:11;86.70;;;40.22;;
45408;SDS011;31162;51.076;3.784;2022-11-20T01:18:39;93.15;;;41.75;;
45408;SDS011;31162;51.076;3.784;2022-11-20T01:21:08;90.68;;;41.47;;
45408;SDS011;31162;51.076;3.784;2022-11-20T01:23:39;96.50;;;42.38;;
45408;SDS011;31162;51.076;3.784;2022-11-20T01:26:06;96.30;;;41.88;;
45408;SDS011;31162;51.076;3.784;2022-11-20T01:28:34;97.28;;;40.50;;
45408;SDS011;31162;51.076;3.784;2022-11-20T01:31:01;97.78;;;42.67;;
45408;SDS011;31162;51.076;3.784;2022-11-20T01:33:34;95.25;;;41.17;;
45408;SDS011;31162;51.076;3.784;2022-11-20T01:36:04;100.53;;;42.05;;
45408;SDS011;31162;51.076;3.784;2022-11-20T01:38:31;100.32;;;42.47;;
45408;SDS011;31162;51.076;3.784;2022-11-20T01:40:56;101.40;;;41.53;;
45408;SDS011;31162;51.076;3.784;2022-11-20T01:43:22;91.88;;;40.97;;
45408;SDS011;31162;51.076;3.784;2022-11-20T01:48:40;94.85;;;40.60;;
45408;SDS011;31162;51.076;3.784;2022-11-20T01:51:30;105.28;;;41.42;;
45408;SDS011;31162;51.076;3.784;2022-11-20T01:54:04;103.78;;;43.85;;
45408;SDS011;31162;51.076;3.784;2022-11-20T01:56:35;96.68;;;40.35;;
45408;SDS011;31162;51.076;3.784;2022-11-20T01:59:04;100.07;;;42.38;;
45408;SDS011;31162;51.076;3.784;2022-11-20T02:01:32;104.63;;;43.67;;
45408;SDS011;31162;51.076;3.784;2022-11-20T02:03:58;101.88;;;40.95;;
45408;SDS011;31162;51.076;3.784;2022-11-20T02:06:27;94.70;;;42.45;;
45408;SDS011;31162;51.076;3.784;2022-11-20T02:08:57;105.32;;;43.35;;
45408;SDS011;31162;51.076;3.784;2022-11-20T02:11:23;104.25;;;42.97;;
45408;SDS011;31162;51.076;3.784;2022-11-20T02:13:49;105.85;;;43.25;;
45408;SDS011;31162;51.076;3.784;2022-11-20T02:18:55;100.93;;;43.05;;
45408;SDS011;31162;51.076;3.784;2022-11-20T02:28:53;91.78;;;40.08;;
45408;SDS011;31162;51.076;3.784;2022-11-20T02:31:19;102.18;;;42.80;;
45408;SDS011;31162;51.076;3.784;2022-11-20T02:33:45;101.75;;;40.25;;
45408;SDS011;31162;51.076;3.784;2022-11-20T02:36:11;111.25;;;43.30;;
45408;SDS011;31162;51.076;3.784;2022-11-20T02:38:41;100.72;;;41.50;;
45408;SDS011;31162;51.076;3.784;2022-11-20T02:41:08;96.95;;;41.38;;
45408;SDS011;31162;51.076;3.784;2022-11-20T02:43:33;105.63;;;42.25;;
45408;SDS011;31162;51.076;3.784;2022-11-20T02:45:59;109.38;;;41.33;;
45408;SDS011;31162;51.076;3.784;2022-11-20T02:48:24;92.22;;;40.83;;
45408;SDS011;31162;51.076;3.784;2022-11-20T02:50:50;98.70;;;41.33;;
45408;SDS011;31162;51.076;3.784;2022-11-20T02:53:16;94.38;;;41.20;;
45408;SDS011;31162;51.076;3.784;2022-11-20T02:55:41;100.20;;;40.22;;
45408;SDS011;31162;51.076;3.784;2022-11-20T02:58:07;94.95;;;39.50;;
45408;SDS011;31162;51.076;3.784;2022-11-20T03:00:33;102.53;;;40.60;;
45408;SDS011;31162;51.076;3.784;2022-11-20T03:02:58;106.72;;;42.55;;
45408;SDS011;31162;51.076;3.784;2022-11-20T03:05:24;102.00;;;40.38;;
45408;SDS011;31162;51.076;3.784;2022-11-20T03:07:51;99.75;;;42.90;;
45408;SDS011;31162;51.076;3.784;2022-11-20T03:10:16;99.03;;;41.60;;
45408;SDS011;31162;51.076;3.784;2022-11-20T03:12:42;105.93;;;42.75;;
45408;SDS011;31162;51.076;3.784;2022-11-20T03:15:08;103.10;;;41.33;;
45408;SDS011;31162;51.076;3.784;2022-11-20T03:17:34;99.90;;;42.05;;
45408;SDS011;31162;51.076;3.784;2022-11-20T03:19:59;102.50;;;42.35;;
45408;SDS011;31162;51.076;3.784;2022-11-20T03:22:25;118.13;;;42.10;;
45408;SDS011;31162;51.076;3.784;2022-11-20T03:24:53;103.82;;;43.00;;
45408;SDS011;31162;51.076;3.784;2022-11-20T03:27:19;104.85;;;43.33;;
45408;SDS011;31162;51.076;3.784;2022-11-20T03:29:45;112.63;;;42.00;;
45408;SDS011;31162;51.076;3.784;2022-11-20T03:32:10;101.90;;;43.25;;
45408;SDS011;31162;51.076;3.784;2022-11-20T03:34:36;103.40;;;41.33;;
45408;SDS011;31162;51.076;3.784;2022-11-20T03:37:01;105.07;;;42.50;;
45408;SDS011;31162;51.076;3.784;2022-11-20T03:39:28;106.93;;;42.88;;
45408;SDS011;31162;51.076;3.784;2022-11-20T03:41:53;103.55;;;42.53;;
45408;SDS011;31162;51.076;3.784;2022-11-20T03:44:20;102.63;;;41.60;;
45408;SDS011;31162;51.076;3.784;2022-11-20T03:46:46;103.43;;;41.47;;
45408;SDS011;31162;51.076;3.784;2022-11-20T03:49:12;106.47;;;42.88;;
45408;SDS011;31162;51.076;3.784;2022-11-20T03:51:38;96.72;;;41.50;;
45408;SDS011;31162;51.076;3.784;2022-11-20T03:54:05;103.65;;;42.33;;
45408;SDS011;31162;51.076;3.784;2022-11-20T03:56:33;106.40;;;41.53;;
45408;SDS011;31162;51.076;3.784;2022-11-20T03:59:02;105.88;;;41.78;;
45408;SDS011;31162;51.076;3.784;2022-11-20T04:01:35;102.45;;;41.55;;
45408;SDS011;31162;51.076;3.784;2022-11-20T04:04:02;102.53;;;41.63;;
45408;SDS011;31162;51.076;3.784;2022-11-20T04:06:38;95.28;;;39.65;;
45408;SDS011;31162;51.076;3.784;2022-11-20T04:09:04;111.40;;;41.17;;
45408;SDS011;31162;51.076;3.784;2022-11-20T04:11:31;104.05;;;40.50;;
45408;SDS011;31162;51.076;3.784;2022-11-20T04:13:59;105.80;;;41.45;;
45408;SDS011;31162;51.076;3.784;2022-11-20T04:18:57;102.63;;;40.58;;
45408;SDS011;31162;51.076;3.784;2022-11-20T04:21:25;107.85;;;41.60;;
45408;SDS011;31162;51.076;3.784;2022-11-20T04:23:52;107.97;;;41.33;;
45408;SDS011;31162;51.076;3.784;2022-11-20T04:26:18;102.75;;;41.03;;
45408;SDS011;31162;51.076;3.784;2022-11-20T04:28:45;99.72;;;40.85;;
45408;SDS011;31162;51.076;3.784;2022-11-20T04:31:12;97.35;;;38.97;;
45408;SDS011;31162;51.076;3.784;2022-11-20T04:33:40;101.10;;;41.60;;
45408;SDS011;31162;51.076;3.784;2022-11-20T04:36:07;97.70;;;39.88;;
45408;SDS011;31162;51.076;3.784;2022-11-20T04:38:35;101.82;;;39.58;;
45408;SDS011;31162;51.076;3.784;2022-11-20T04:41:03;106.75;;;40.45;;
45408;SDS011;31162;51.076;3.784;2022-11-20T04:43:30;105.60;;;39.40;;
45408;SDS011;31162;51.076;3.784;2022-11-20T04:45:57;109.85;;;41.22;;
45408;SDS011;31162;51.076;3.784;2022-11-20T04:48:24;109.60;;;40.10;;
45408;SDS011;31162;51.076;3.784;2022-11-20T04:50:51;105.45;;;40.47;;
45408;SDS011;31162;51.076;3.784;2022-11-20T04:53:17;94.28;;;39.75;;
45408;SDS011;31162;51.076;3.784;2022-11-20T04:55:43;112.82;;;41.90;;
45408;SDS011;31162;51.076;3.784;2022-11-20T04:58:09;101.78;;;38.90;;
45408;SDS011;31162;51.076;3.784;2022-11-20T05:00:35;102.95;;;40.00;;
45408;SDS011;31162;51.076;3.784;2022-11-20T05:03:01;110.32;;;39.45;;
45408;SDS011;31162;51.076;3.784;2022-11-20T05:05:26;114.47;;;41.97;;
45408;SDS011;31162;51.076;3.784;2022-11-20T05:07:52;110.50;;;39.65;;
45408;SDS011;31162;51.076;3.784;2022-11-20T05:10:17;106.68;;;38.28;;
45408;SDS011;31162;51.076;3.784;2022-11-20T05:12:43;99.32;;;38.42;;
45408;SDS011;31162;51.076;3.784;2022-11-20T05:15:09;103.05;;;40.58;;
45408;SDS011;31162;51.076;3.784;2022-11-20T05:17:35;105.70;;;38.50;;
45408;SDS011;31162;51.076;3.784;2022-11-20T05:20:00;118.30;;;40.75;;
45408;SDS011;31162;51.076;3.784;2022-11-20T05:22:26;105.00;;;38.85;;
45408;SDS011;31162;51.076;3.784;2022-11-20T05:24:51;119.63;;;40.25;;
45408;SDS011;31162;51.076;3.784;2022-11-20T05:27:17;102.82;;;37.45;;
45408;SDS011;31162;51.076;3.784;2022-11-20T05:29:43;110.28;;;40.53;;
45408;SDS011;31162;51.076;3.784;2022-11-20T05:32:08;105.78;;;39.83;;
45408;SDS011;31162;51.076;3.784;2022-11-20T05:34:34;101.55;;;38.15;;
45408;SDS011;31162;51.076;3.784;2022-11-20T05:37:01;108.30;;;40.58;;
45408;SDS011;31162;51.076;3.784;2022-11-20T05:39:28;100.22;;;38.67;;
45408;SDS011;31162;51.076;3.784;2022-11-20T05:41:53;111.97;;;40.78;;
45408;SDS011;31162;51.076;3.784;2022-11-20T05:44:38;108.63;;;40.72;;
45408;SDS011;31162;51.076;3.784;2022-11-20T05:47:04;107.60;;;38.72;;
45408;SDS011;31162;51.076;3.784;2022-11-20T05:49:30;116.57;;;40.88;;
45408;SDS011;31162;51.076;3.784;2022-11-20T05:51:56;105.60;;;38.80;;
45408;SDS011;31162;51.076;3.784;2022-11-20T05:54:21;111.53;;;39.80;;
45408;SDS011;31162;51.076;3.784;2022-11-20T05:56:47;107.47;;;40.90;;
45408;SDS011;31162;51.076;3.784;2022-11-20T05:59:13;115.28;;;39.10;;
45408;SDS011;31162;51.076;3.784;2022-11-20T06:01:38;107.55;;;38.65;;
45408;SDS011;31162;51.076;3.784;2022-11-20T06:04:04;120.28;;;39.53;;
45408;SDS011;31162;51.076;3.784;2022-11-20T06:06:30;110.18;;;39.05;;
45408;SDS011;31162;51.076;3.784;2022-11-20T06:08:55;110.80;;;38.13;;
45408;SDS011;31162;51.076;3.784;2022-11-20T06:11:21;122.30;;;39.42;;
45408;SDS011;31162;51.076;3.784;2022-11-20T06:13:47;112.65;;;39.33;;
45408;SDS011;31162;51.076;3.784;2022-11-20T06:16:14;117.28;;;39.17;;
45408;SDS011;31162;51.076;3.784;2022-11-20T06:18:41;116.82;;;38.00;;
45408;SDS011;31162;51.076;3.784;2022-11-20T06:21:11;117.30;;;39.30;;
45408;SDS011;31162;51.076;3.784;2022-11-20T06:23:38;124.05;;;39.70;;
45408;SDS011;31162;51.076;3.784;2022-11-20T06:26:08;131.38;;;40.70;;
45408;SDS011;31162;51.076;3.784;2022-11-20T06:28:36;116.82;;;38.92;;
45408;SDS011;31162;51.076;3.784;2022-11-20T06:31:03;124.68;;;38.72;;
45408;SDS011;31162;51.076;3.784;2022-11-20T06:33:29;133.73;;;40.60;;
45408;SDS011;31162;51.076;3.784;2022-11-20T06:35:58;137.98;;;48.40;;
45408;SDS011;31162;51.076;3.784;2022-11-20T06:38:25;138.93;;;40.65;;
45408;SDS011;31162;51.076;3.784;2022-11-20T06:40:52;133.98;;;39.75;;
45408;SDS011;31162;51.076;3.784;2022-11-20T06:43:17;133.35;;;38.85;;
45408;SDS011;31162;51.076;3.784;2022-11-20T06:45:43;133.95;;;39.63;;
45408;SDS011;31162;51.076;3.784;2022-11-20T06:48:09;127.82;;;41.58;;
45408;SDS011;31162;51.076;3.784;2022-11-20T06:50:36;134.65;;;39.65;;
45408;SDS011;31162;51.076;3.784;2022-11-20T06:53:03;128.88;;;39.60;;
45408;SDS011;31162;51.076;3.784;2022-11-20T06:55:30;122.70;;;37.47;;
45408;SDS011;31162;51.076;3.784;2022-11-20T06:57:56;127.63;;;38.95;;
45408;SDS011;31162;51.076;3.784;2022-11-20T07:00:22;133.70;;;40.40;;
45408;SDS011;31162;51.076;3.784;2022-11-20T07:02:48;121.65;;;37.92;;
45408;SDS011;31162;51.076;3.784;2022-11-20T07:05:14;169.70;;;66.05;;
45408;SDS011;31162;51.076;3.784;2022-11-20T07:07:40;133.90;;;39.38;;
45408;SDS011;31162;51.076;3.784;2022-11-20T07:10:07;134.32;;;40.50;;
45408;SDS011;31162;51.076;3.784;2022-11-20T07:12:33;133.75;;;43.58;;
45408;SDS011;31162;51.076;3.784;2022-11-20T07:14:58;124.80;;;41.05;;
45408;SDS011;31162;51.076;3.784;2022-11-20T07:17:24;122.40;;;39.25;;
45408;SDS011;31162;51.076;3.784;2022-11-20T07:19:50;123.85;;;41.25;;
45408;SDS011;31162;51.076;3.784;2022-11-20T07:22:15;127.22;;;40.65;;
45408;SDS011;31162;51.076;3.784;2022-11-20T07:24:41;140.45;;;41.67;;
45408;SDS011;31162;51.076;3.784;2022-11-20T07:27:07;115.82;;;39.25;;
45408;SDS011;31162;51.076;3.784;2022-11-20T07:29:32;117.43;;;39.03;;
45408;SDS011;31162;51.076;3.784;2022-11-20T07:31:58;120.75;;;38.25;;
45408;SDS011;31162;51.076;3.784;2022-11-20T07:34:24;113.45;;;38.00;;
45408;SDS011;31162;51.076;3.784;2022-11-20T07:36:49;117.85;;;37.83;;
45408;SDS011;31162;51.076;3.784;2022-11-20T07:39:15;124.43;;;42.28;;
45408;SDS011;31162;51.076;3.784;2022-11-20T07:41:41;118.72;;;39.60;;
45408;SDS011;31162;51.076;3.784;2022-11-20T07:44:06;119.15;;;39.50;;
45408;SDS011;31162;51.076;3.784;2022-11-20T07:46:32;115.05;;;38.88;;
45408;SDS011;31162;51.076;3.784;2022-11-20T07:48:58;108.20;;;37.10;;
45408;SDS011;31162;51.076;3.784;2022-11-20T07:51:23;120.22;;;38.85;;
45408;SDS011;31162;51.076;3.784;2022-11-20T07:53:51;116.15;;;39.13;;
45408;SDS011;31162;51.076;3.784;2022-11-20T07:56:18;117.75;;;37.80;;
45408;SDS011;31162;51.076;3.784;2022-11-20T07:58:43;116.38;;;38.72;;
45408;SDS011;31162;51.076;3.784;2022-11-20T08:01:09;116.18;;;37.63;;
45408;SDS011;31162;51.076;3.784;2022-11-20T08:03:35;109.72;;;37.63;;
45408;SDS011;31162;51.076;3.784;2022-11-20T08:06:04;110.93;;;36.17;;
45408;SDS011;31162;51.076;3.784;2022-11-20T08:08:30;118.43;;;37.40;;
45408;SDS011;31162;51.076;3.784;2022-11-20T08:10:59;110.47;;;37.58;;
45408;SDS011;31162;51.076;3.784;2022-11-20T08:13:43;111.43;;;36.75;;
45408;SDS011;31162;51.076;3.784;2022-11-20T08:16:27;105.65;;;35.80;;
45408;SDS011;31162;51.076;3.784;2022-11-20T08:18:53;99.40;;;36.58;;
45408;SDS011;31162;51.076;3.784;2022-11-20T08:21:19;105.88;;;37.15;;
45408;SDS011;31162;51.076;3.784;2022-11-20T08:23:45;102.20;;;35.75;;
45408;SDS011;31162;51.076;3.784;2022-11-20T08:26:10;100.05;;;35.72;;
45408;SDS011;31162;51.076;3.784;2022-11-20T08:28:36;105.78;;;35.65;;
45408;SDS011;31162;51.076;3.784;2022-11-20T08:31:02;102.85;;;36.55;;
45408;SDS011;31162;51.076;3.784;2022-11-20T08:33:28;103.95;;;36.58;;
45408;SDS011;31162;51.076;3.784;2022-11-20T08:35:58;100.07;;;34.08;;
45408;SDS011;31162;51.076;3.784;2022-11-20T08:38:25;94.03;;;36.33;;
45408;SDS011;31162;51.076;3.784;2022-11-20T08:40:51;105.78;;;37.13;;
45408;SDS011;31162;51.076;3.784;2022-11-20T08:43:40;100.15;;;35.55;;
45408;SDS011;31162;51.076;3.784;2022-11-20T08:46:05;93.78;;;35.03;;
45408;SDS011;31162;51.076;3.784;2022-11-20T08:48:31;103.32;;;35.15;;
45408;SDS011;31162;51.076;3.784;2022-11-20T08:51:00;100.18;;;35.65;;
45408;SDS011;31162;51.076;3.784;2022-11-20T08:53:26;94.90;;;34.22;;
45408;SDS011;31162;51.076;3.784;2022-11-20T08:55:52;95.45;;;35.25;;
45408;SDS011;31162;51.076;3.784;2022-11-20T08:58:17;94.35;;;36.55;;
45408;SDS011;31162;51.076;3.784;2022-11-20T09:00:43;99.38;;;35.30;;
45408;SDS011;31162;51.076;3.784;2022-11-20T09:03:09;97.53;;;36.80;;
45408;SDS011;31162;51.076;3.784;2022-11-20T09:05:34;95.18;;;36.13;;
45408;SDS011;31162;51.076;3.784;2022-11-20T09:08:00;95.72;;;34.97;;
45408;SDS011;31162;51.076;3.784;2022-11-20T09:10:26;91.93;;;36.40;;
45408;SDS011;31162;51.076;3.784;2022-11-20T09:12:52;88.40;;;34.35;;
45408;SDS011;31162;51.076;3.784;2022-11-20T09:15:18;90.70;;;33.38;;
45408;SDS011;31162;51.076;3.784;2022-11-20T09:17:54;94.32;;;35.80;;
45408;SDS011;31162;51.076;3.784;2022-11-20T09:20:26;123.65;;;52.67;;
45408;SDS011;31162;51.076;3.784;2022-11-20T09:22:53;89.03;;;35.83;;
45408;SDS011;31162;51.076;3.784;2022-11-20T09:25:19;84.32;;;32.90;;
45408;SDS011;31162;51.076;3.784;2022-11-20T09:27:45;93.22;;;37.80;;
45408;SDS011;31162;51.076;3.784;2022-11-20T09:30:12;94.10;;;40.63;;
45408;SDS011;31162;51.076;3.784;2022-11-20T09:32:41;75.75;;;32.38;;
45408;SDS011;31162;51.076;3.784;2022-11-20T09:35:08;81.28;;;32.00;;
45408;SDS011;31162;51.076;3.784;2022-11-20T09:37:34;72.65;;;32.78;;
45408;SDS011;31162;51.076;3.784;2022-11-20T09:40:00;66.10;;;30.77;;
45408;SDS011;31162;51.076;3.784;2022-11-20T09:42:49;70.60;;;31.23;;
45408;SDS011;31162;51.076;3.784;2022-11-20T09:58:45;48.63;;;25.58;;
45408;SDS011;31162;51.076;3.784;2022-11-20T10:03:42;48.90;;;24.92;;
45408;SDS011;31162;51.076;3.784;2022-11-20T10:06:34;47.25;;;24.83;;
45408;SDS011;31162;51.076;3.784;2022-11-20T10:14:18;41.13;;;23.92;;
45408;SDS011;31162;51.076;3.784;2022-11-20T10:30:59;28.70;;;18.80;;
45408;SDS011;31162;51.076;3.784;2022-11-20T10:33:29;28.27;;;18.73;;
45408;SDS011;31162;51.076;3.784;2022-11-20T10:38:48;31.52;;;21.63;;
45408;SDS011;31162;51.076;3.784;2022-11-20T10:41:24;26.58;;;19.48;;
45408;SDS011;31162;51.076;3.784;2022-11-20T10:46:32;22.35;;;14.73;;
45408;SDS011;31162;51.076;3.784;2022-11-20T10:49:15;18.77;;;13.02;;
45408;SDS011;31162;51.076;3.784;2022-11-20T11:01:17;20.67;;;14.80;;
45408;SDS011;31162;51.076;3.784;2022-11-20T11:03:48;22.95;;;18.20;;
45408;SDS011;31162;51.076;3.784;2022-11-20T11:06:25;17.23;;;12.55;;
45408;SDS011;31162;51.076;3.784;2022-11-20T11:09:02;14.80;;;9.98;;
45408;SDS011;31162;51.076;3.784;2022-11-20T11:11:35;20.85;;;17.42;;
45408;SDS011;31162;51.076;3.784;2022-11-20T11:16:40;14.98;;;9.40;;
45408;SDS011;31162;51.076;3.784;2022-11-20T11:19:23;14.23;;;10.10;;
45408;SDS011;31162;51.076;3.784;2022-11-20T11:21:50;14.02;;;11.23;;
45408;SDS011;31162;51.076;3.784;2022-11-20T11:24:22;10.23;;;7.53;;
45408;SDS011;31162;51.076;3.784;2022-11-20T11:26:55;12.48;;;6.72;;
45408;SDS011;31162;51.076;3.784;2022-11-20T11:29:23;8.90;;;5.63;;
45408;SDS011;31162;51.076;3.784;2022-11-20T11:32:02;7.90;;;5.20;;
45408;SDS011;31162;51.076;3.784;2022-11-20T11:34:32;9.48;;;5.38;;
45408;SDS011;31162;51.076;3.784;2022-11-20T11:36:58;9.35;;;5.88;;
45408;SDS011;31162;51.076;3.784;2022-11-20T11:39:24;10.18;;;5.38;;
45408;SDS011;31162;51.076;3.784;2022-11-20T11:41:52;9.63;;;6.10;;
45408;SDS011;31162;51.076;3.784;2022-11-20T11:44:22;11.02;;;5.50;;
45408;SDS011;31162;51.076;3.784;2022-11-20T11:47:26;10.07;;;5.93;;
45408;SDS011;31162;51.076;3.784;2022-11-20T11:50:25;6.55;;;5.05;;
45408;SDS011;31162;51.076;3.784;2022-11-20T11:52:56;9.25;;;4.78;;
45408;SDS011;31162;51.076;3.784;2022-11-20T11:55:51;10.32;;;5.15;;
45408;SDS011;31162;51.076;3.784;2022-11-20T11:58:46;6.88;;;4.78;;
45408;SDS011;31162;51.076;3.784;2022-11-20T12:04:15;14.35;;;9.20;;
45408;SDS011;31162;51.076;3.784;2022-11-20T12:09:10;9.35;;;4.97;;
45408;SDS011;31162;51.076;3.784;2022-11-20T12:11:51;7.68;;;4.70;;
45408;SDS011;31162;51.076;3.784;2022-11-20T12:14:32;25.27;;;16.45;;
45408;SDS011;31162;51.076;3.784;2022-11-20T12:17:01;30.00;;;23.52;;
45408;SDS011;31162;51.076;3.784;2022-11-20T12:19:29;15.75;;;10.52;;
45408;SDS011;31162;51.076;3.784;2022-11-20T12:22:47;24.15;;;19.35;;
45408;SDS011;31162;51.076;3.784;2022-11-20T12:25:30;12.38;;;7.13;;
45408;SDS011;31162;51.076;3.784;2022-11-20T12:27:52;15.38;;;11.63;;
45408;SDS011;31162;51.076;3.784;2022-11-20T12:30:20;14.02;;;8.35;;
45408;SDS011;31162;51.076;3.784;2022-11-20T12:41:12;10.85;;;8.65;;
45408;SDS011;31162;51.076;3.784;2022-11-20T13:01:44;14.68;;;12.20;;
45408;SDS011;31162;51.076;3.784;2022-11-20T13:07:20;26.42;;;21.42;;
45408;SDS011;31162;51.076;3.784;2022-11-20T13:09:48;10.05;;;7.30;;
45408;SDS011;31162;51.076;3.784;2022-11-20T13:20:19;9.65;;;6.75;;
45408;SDS011;31162;51.076;3.784;2022-11-20T13:22:46;9.23;;;6.90;;
45408;SDS011;31162;51.076;3.784;2022-11-20T13:25:29;20.77;;;17.50;;
45408;SDS011;31162;51.076;3.784;2022-11-20T13:27:56;7.43;;;6.35;;
45408;SDS011;31162;51.076;3.784;2022-11-20T13:30:24;12.48;;;11.18;;
45408;SDS011;31162;51.076;3.784;2022-11-20T13:33:09;7.57;;;6.82;;
45408;SDS011;31162;51.076;3.784;2022-11-20T13:36:02;8.60;;;6.82;;
45408;SDS011;31162;51.076;3.784;2022-11-20T13:38:43;8.73;;;7.65;;
45408;SDS011;31162;51.076;3.784;2022-11-20T13:41:11;12.77;;;9.57;;
45408;SDS011;31162;51.076;3.784;2022-11-20T13:46:43;7.07;;;6.35;;
45408;SDS011;31162;51.076;3.784;2022-11-20T14:01:00;8.82;;;7.85;;
45408;SDS011;31162;51.076;3.784;2022-11-20T14:03:34;8.50;;;7.57;;
45408;SDS011;31162;51.076;3.784;2022-11-20T14:06:04;7.90;;;7.05;;
45408;SDS011;31162;51.076;3.784;2022-11-20T14:08:44;8.85;;;7.85;;
45408;SDS011;31162;51.076;3.784;2022-11-20T14:11:19;7.45;;;6.75;;
45408;SDS011;31162;51.076;3.784;2022-11-20T14:16:42;6.80;;;5.85;;
45408;SDS011;31162;51.076;3.784;2022-11-20T14:22:09;7.65;;;6.82;;
45408;SDS011;31162;51.076;3.784;2022-11-20T14:24:42;7.43;;;6.72;;
45408;SDS011;31162;51.076;3.784;2022-11-20T14:27:12;7.13;;;6.50;;
45408;SDS011;31162;51.076;3.784;2022-11-20T14:29:46;7.15;;;6.43;;
45408;SDS011;31162;51.076;3.784;2022-11-20T14:32:20;8.75;;;7.18;;
45408;SDS011;31162;51.076;3.784;2022-11-20T14:34:51;7.25;;;6.55;;
45408;SDS011;31162;51.076;3.784;2022-11-20T14:37:21;6.40;;;5.90;;
45408;SDS011;31162;51.076;3.784;2022-11-20T14:39:55;7.38;;;6.68;;
45408;SDS011;31162;51.076;3.784;2022-11-20T14:42:24;8.52;;;7.70;;
45408;SDS011;31162;51.076;3.784;2022-11-20T14:44:57;7.28;;;6.68;;
45408;SDS011;31162;51.076;3.784;2022-11-20T14:47:25;7.85;;;7.22;;
45408;SDS011;31162;51.076;3.784;2022-11-20T14:49:53;9.23;;;7.63;;
45408;SDS011;31162;51.076;3.784;2022-11-20T14:52:23;8.15;;;7.35;;
45408;SDS011;31162;51.076;3.784;2022-11-20T14:54:51;7.93;;;7.15;;
45408;SDS011;31162;51.076;3.784;2022-11-20T14:57:25;9.20;;;7.65;;
45408;SDS011;31162;51.076;3.784;2022-11-20T15:02:32;8.10;;;7.30;;
45408;SDS011;31162;51.076;3.784;2022-11-20T15:04:59;9.18;;;6.38;;
45408;SDS011;31162;51.076;3.784;2022-11-20T15:07:30;6.45;;;5.75;;
45408;SDS011;31162;51.076;3.784;2022-11-20T15:10:01;9.00;;;5.80;;
45408;SDS011;31162;51.076;3.784;2022-11-20T15:12:33;10.38;;;5.38;;
45408;SDS011;31162;51.076;3.784;2022-11-20T15:15:02;9.35;;;4.45;;
45408;SDS011;31162;51.076;3.784;2022-11-20T15:17:30;10.05;;;4.43;;
45408;SDS011;31162;51.076;3.784;2022-11-20T15:19:57;11.10;;;4.70;;
45408;SDS011;31162;51.076;3.784;2022-11-20T15:22:24;14.23;;;4.57;;
45408;SDS011;31162;51.076;3.784;2022-11-20T15:24:50;13.23;;;4.20;;
45408;SDS011;31162;51.076;3.784;2022-11-20T15:27:16;12.35;;;3.92;;
45408;SDS011;31162;51.076;3.784;2022-11-20T15:29:41;11.90;;;3.80;;
45408;SDS011;31162;51.076;3.784;2022-11-20T15:32:07;10.52;;;3.83;;
45408;SDS011;31162;51.076;3.784;2022-11-20T15:34:34;14.90;;;3.97;;
45408;SDS011;31162;51.076;3.784;2022-11-20T15:36:59;13.70;;;3.72;;
45408;SDS011;31162;51.076;3.784;2022-11-20T15:39:25;15.32;;;3.70;;
45408;SDS011;31162;51.076;3.784;2022-11-20T15:41:51;13.35;;;4.57;;
45408;SDS011;31162;51.076;3.784;2022-11-20T15:44:16;16.00;;;5.30;;
45408;SDS011;31162;51.076;3.784;2022-11-20T15:46:42;18.67;;;4.78;;
45408;SDS011;31162;51.076;3.784;2022-11-20T15:49:13;14.00;;;4.43;;
45408;SDS011;31162;51.076;3.784;2022-11-20T15:51:41;11.73;;;4.45;;
45408;SDS011;31162;51.076;3.784;2022-11-20T15:54:09;15.52;;;4.03;;
45408;SDS011;31162;51.076;3.784;2022-11-20T15:56:37;20.30;;;7.43;;
45408;SDS011;31162;51.076;3.784;2022-11-20T15:59:03;15.07;;;4.78;;
45408;SDS011;31162;51.076;3.784;2022-11-20T16:01:29;14.43;;;4.70;;
45408;SDS011;31162;51.076;3.784;2022-11-20T16:03:55;17.92;;;5.32;;
45408;SDS011;31162;51.076;3.784;2022-11-20T16:06:21;15.63;;;4.47;;
45408;SDS011;31162;51.076;3.784;2022-11-20T16:08:46;17.42;;;5.47;;
45408;SDS011;31162;51.076;3.784;2022-11-20T16:11:12;17.80;;;4.55;;
45408;SDS011;31162;51.076;3.784;2022-11-20T16:13:40;19.13;;;5.60;;
45408;SDS011;31162;51.076;3.784;2022-11-20T16:16:35;15.13;;;4.45;;
45408;SDS011;31162;51.076;3.784;2022-11-20T16:19:02;12.38;;;4.03;;
45408;SDS011;31162;51.076;3.784;2022-11-20T16:21:28;17.38;;;3.20;;
45408;SDS011;31162;51.076;3.784;2022-11-20T16:24:01;15.18;;;3.10;;
45408;SDS011;31162;51.076;3.784;2022-11-20T16:26:28;12.30;;;3.17;;
45408;SDS011;31162;51.076;3.784;2022-11-20T16:28:54;9.10;;;2.83;;
45408;SDS011;31162;51.076;3.784;2022-11-20T16:31:20;11.82;;;3.10;;
45408;SDS011;31162;51.076;3.784;2022-11-20T16:33:53;15.27;;;3.45;;
45408;SDS011;31162;51.076;3.784;2022-11-20T16:36:21;14.65;;;3.65;;
45408;SDS011;31162;51.076;3.784;2022-11-20T16:38:52;13.45;;;3.97;;
45408;SDS011;31162;51.076;3.784;2022-11-20T16:41:18;14.20;;;3.90;;
45408;SDS011;31162;51.076;3.784;2022-11-20T16:43:48;11.48;;;2.92;;